Time;durP1;ratioP1;P1;durP2;ratioP2;P2;SDS_P1;SDS_P2;PMS_P1;PMS_P2;Temp;Humidity;BMP_temperature;BMP_pressure;BME280_temperature;BME280_humidity;BME280_pressure;Samples;Min_cycle;Max_cycle;Signal;HPM_P1;HPM_P2
2022/09/01 00:02:07;;;;;;;4.60;1.75;;;;;;;18.94;44.11;101917.22;5112222;28;20039;-56
2022/09/01 00:04:37;;;;;;;3.75;2.00;;;;;;;18.82;44.56;101910.97;5111941;28;20031;-56
2022/09/01 00:07:07;;;;;;;5.53;1.90;;;;;;;18.89;44.43;101905.97;5112105;28;20030;-56
2022/09/01 00:09:33;;;;;;;7.20;2.20;;;;;;;18.87;44.60;101903.38;5110614;28;20089;-56
2022/09/01 00:11:58;;;;;;;4.95;1.98;;;;;;;18.93;44.55;101900.19;5110869;28;20020;-56
2022/09/01 00:14:29;;;;;;;5.05;2.15;;;;;;;18.80;44.98;101904.88;5110370;28;20118;-56
2022/09/01 00:16:55;;;;;;;4.25;2.10;;;;;;;18.89;45.00;101898.75;5110737;28;20402;-56
2022/09/01 00:19:23;;;;;;;5.32;1.80;;;;;;;18.79;45.42;101897.75;5110452;28;20023;-56
2022/09/01 00:21:48;;;;;;;4.13;2.25;;;;;;;18.93;45.22;101893.94;5112082;28;20034;-56
2022/09/01 00:24:16;;;;;;;5.13;2.28;;;;;;;18.78;45.81;101896.91;5114070;28;20047;-56
2022/09/01 00:26:43;;;;;;;4.13;2.00;;;;;;;18.74;46.46;101900.84;5115929;27;20150;-56
2022/09/01 00:29:08;;;;;;;2.72;2.10;;;;;;;18.60;46.49;101895.69;5115225;28;20103;-56
2022/09/01 00:31:35;;;;;;;5.70;2.22;;;;;;;18.64;46.71;101898.97;5115561;28;20385;-56
2022/09/01 00:34:01;;;;;;;3.97;1.95;;;;;;;18.48;47.23;101910.13;5115512;28;20618;-56
2022/09/01 00:36:28;;;;;;;7.00;2.63;;;;;;;18.50;47.42;101908.16;5116058;28;20364;-56
2022/09/01 00:38:54;;;;;;;6.40;2.38;;;;;;;18.38;47.86;101905.47;5115787;28;20023;-56
2022/09/01 00:41:23;;;;;;;4.55;2.25;;;;;;;18.34;48.10;101904.00;5115559;28;20093;-56
2022/09/01 00:43:53;;;;;;;;;;;;;;;18.64;46.75;101901.66;5115427;28;20317;-56
2022/09/01 00:46:25;;;;;;;7.30;2.90;;;;;;;18.49;48.10;101907.28;5113950;28;19908;-56
2022/09/01 00:48:56;;;;;;;3.63;1.85;;;;;;;18.46;48.20;101909.38;5115460;28;20023;-56
2022/09/01 00:51:21;;;;;;;2.53;2.08;;;;;;;18.33;48.48;101904.97;5115451;27;20020;-56
2022/09/01 00:53:48;;;;;;;4.88;1.83;;;;;;;18.27;49.07;101905.47;5115366;28;20042;-56
2022/09/01 00:56:17;;;;;;;4.32;1.83;;;;;;;18.33;48.89;101904.13;5113832;28;20028;-56
2022/09/01 00:58:44;;;;;;;2.67;1.95;;;;;;;18.23;49.18;101906.66;5114679;28;20056;-56
2022/09/01 01:01:13;;;;;;;3.70;2.10;;;;;;;18.15;49.45;101895.66;5113736;28;20080;-56
2022/09/01 01:03:41;;;;;;;7.43;3.33;;;;;;;18.32;49.30;101897.00;5113778;28;20016;-56
2022/09/01 01:06:08;;;;;;;3.92;2.22;;;;;;;18.13;50.03;101898.47;5115055;28;20024;-56
2022/09/01 01:08:37;;;;;;;3.72;2.05;;;;;;;18.21;49.80;101899.72;5114971;28;20019;-56
2022/09/01 01:11:05;;;;;;;5.40;2.05;;;;;;;18.05;50.47;101900.03;5115186;28;20031;-56
2022/09/01 01:13:34;;;;;;;3.70;2.17;;;;;;;17.98;50.45;101891.59;5114421;28;20152;-56
2022/09/01 01:16:01;;;;;;;3.15;2.10;;;;;;;17.92;50.69;101887.53;5114726;28;20107;-56
2022/09/01 01:18:29;;;;;;;5.45;2.22;;;;;;;17.96;50.78;101889.97;5114927;28;20435;-56
2022/09/01 01:24:00;;;;;;;5.80;2.30;;;;;;;17.96;51.15;101892.69;5114910;28;20043;-56
2022/09/01 01:26:29;;;;;;;6.05;2.28;;;;;;;17.90;51.10;101884.09;5114993;28;20269;-56
2022/09/01 01:28:54;;;;;;;9.43;2.50;;;;;;;17.86;51.62;101889.84;5113018;28;20047;-56
2022/09/01 01:31:21;;;;;;;8.65;2.53;;;;;;;17.75;51.78;101893.31;5113029;28;20494;-56
2022/09/01 01:33:50;;;;;;;4.80;2.22;;;;;;;17.75;52.00;101889.78;5113333;28;20085;-56
2022/09/01 01:36:29;;;;;;;3.15;2.35;;;;;;;17.74;52.03;101896.16;5111802;28;20086;-56
2022/09/01 01:39:01;;;;;;;4.60;2.58;;;;;;;17.71;51.83;101887.31;5114631;28;20035;-56
2022/09/01 01:41:28;;;;;;;4.32;2.35;;;;;;;17.75;52.08;101892.47;5114646;28;20496;-56
2022/09/01 01:43:57;;;;;;;4.93;2.33;;;;;;;17.66;52.66;101894.88;5113875;28;20023;-60
2022/09/01 01:46:24;;;;;;;4.53;2.30;;;;;;;17.71;52.47;101897.25;5114328;28;20019;-56
2022/09/01 01:48:51;;;;;;;8.00;2.55;;;;;;;17.56;53.00;101898.38;5114217;28;20038;-56
2022/09/01 01:51:20;;;;;;;5.72;2.42;;;;;;;17.52;52.91;101892.38;5114128;28;20023;-56
2022/09/01 01:53:46;;;;;;;6.57;2.30;;;;;;;17.61;52.97;101901.59;5114194;28;20390;-56
2022/09/01 01:56:12;;;;;;;6.07;2.30;;;;;;;17.49;53.04;101890.78;5114046;28;20055;-56
2022/09/01 01:58:39;;;;;;;2.50;1.98;;;;;;;17.43;53.35;101901.16;5113284;28;20108;-56
2022/09/01 02:01:06;;;;;;;3.83;2.53;;;;;;;17.49;53.42;101906.91;5114155;28;20027;-56
2022/09/01 02:03:37;;;;;;;2.90;2.08;;;;;;;17.56;53.28;101904.66;5113749;28;20019;-56
2022/09/01 02:06:06;;;;;;;4.78;2.20;;;;;;;17.38;53.47;101903.31;5113979;28;20028;-56
2022/09/01 02:08:34;;;;;;;4.55;2.65;;;;;;;17.38;53.86;101901.50;5113802;28;20085;-56
2022/09/01 02:11:00;;;;;;;4.55;2.40;;;;;;;17.38;53.63;101898.81;5113888;28;20040;-56
2022/09/01 02:13:31;;;;;;;3.13;2.38;;;;;;;17.40;53.74;101901.38;5111896;28;20111;-56
2022/09/01 02:16:02;;;;;;;3.88;2.53;;;;;;;17.28;54.10;101900.47;5113865;28;20431;-56
2022/09/01 02:18:34;;;;;;;5.55;2.35;;;;;;;17.37;53.80;101899.78;5113715;28;20056;-56
2022/09/01 02:21:01;;;;;;;11.35;2.63;;;;;;;17.43;53.69;101899.31;5113745;28;20023;-55
2022/09/01 02:23:28;;;;;;;5.05;2.42;;;;;;;17.34;54.15;101902.69;5113652;28;20127;-56
2022/09/01 02:25:59;;;;;;;6.10;2.50;;;;;;;17.35;54.05;101893.66;5112305;28;20020;-56
2022/09/01 02:28:27;;;;;;;3.92;2.40;;;;;;;17.28;54.44;101899.63;5112766;28;20019;-56
2022/09/01 02:30:56;;;;;;;3.53;2.40;;;;;;;17.21;54.39;101894.69;5113416;28;20019;-56
2022/09/01 02:33:24;;;;;;;3.45;2.40;;;;;;;17.20;54.41;101892.09;5113276;28;20546;-56
2022/09/01 02:35:52;;;;;;;4.38;2.25;;;;;;;17.06;55.08;101901.22;5112170;28;20050;-56
2022/09/01 02:38:26;;;;;;;7.28;2.30;;;;;;;17.04;54.98;101897.78;5113148;28;20080;-56
2022/09/01 02:40:52;;;;;;;2.58;2.28;;;;;;;17.00;55.09;101891.78;5112011;28;20083;-56
2022/09/01 02:43:19;;;;;;;4.55;2.42;;;;;;;17.14;54.88;101897.94;5112261;28;20023;-56
2022/09/01 02:45:46;;;;;;;3.90;2.65;;;;;;;16.89;55.66;101896.22;5112928;28;20036;-56
2022/09/01 02:48:12;;;;;;;6.38;2.47;;;;;;;16.94;55.44;101897.59;5112897;28;20030;-56
2022/09/01 02:50:40;;;;;;;5.78;2.40;;;;;;;16.94;55.42;101894.03;5113110;28;20024;-56
2022/09/01 02:53:08;;;;;;;5.10;2.40;;;;;;;16.88;55.61;101898.00;5112936;28;20070;-55
2022/09/01 02:55:45;;;;;;;3.33;2.50;;;;;;;16.84;55.82;101885.78;5112886;28;20027;-56
2022/09/01 02:58:18;;;;;;;5.15;2.55;;;;;;;16.77;56.21;101884.53;5112153;28;20404;-56
2022/09/01 03:00:48;;;;;;;5.50;2.50;;;;;;;16.74;56.05;101882.03;5112802;28;20043;-56
2022/09/01 03:03:18;;;;;;;3.47;2.75;;;;;;;16.68;56.46;101885.16;5111450;28;20485;-56
2022/09/01 03:05:44;;;;;;;3.42;2.20;;;;;;;16.77;56.06;101881.84;5112862;28;20031;-56
2022/09/01 03:08:11;;;;;;;9.32;2.63;;;;;;;16.65;56.58;101880.88;5112448;28;20363;-56
2022/09/01 03:10:43;;;;;;;5.90;2.85;;;;;;;16.66;56.48;101877.22;5111214;28;20059;-56
2022/09/01 03:13:15;;;;;;;6.50;3.05;;;;;;;16.45;56.91;101881.44;5112181;28;20035;-56
2022/09/01 03:15:41;;;;;;;3.90;2.88;;;;;;;16.48;57.06;101884.75;5112712;28;20102;-56
2022/09/01 03:18:09;;;;;;;7.80;2.85;;;;;;;16.52;56.99;101875.50;5112412;27;20027;-56
2022/09/01 03:20:38;;;;;;;5.13;2.60;;;;;;;16.58;56.88;101876.91;5111209;28;20493;-56
2022/09/01 03:23:07;;;;;;;4.28;2.55;;;;;;;16.56;56.83;101884.22;5112458;28;20102;-56
2022/09/01 03:25:33;;;;;;;6.38;3.10;;;;;;;16.46;57.04;101885.84;5112361;28;20027;-56
2022/09/01 03:28:00;;;;;;;4.10;2.47;;;;;;;16.32;57.50;101887.69;5110850;28;20470;-56
2022/09/01 03:30:28;;;;;;;8.70;2.72;;;;;;;16.36;57.39;101888.31;5111269;28;20024;-56
2022/09/01 03:32:55;;;;;;;4.20;2.80;;;;;;;16.43;57.29;101888.75;5112283;28;20434;-56
2022/09/01 03:35:21;;;;;;;6.55;2.53;;;;;;;16.40;57.12;101889.81;5112367;28;20051;-56
2022/09/01 03:37:46;;;;;;;6.93;2.55;;;;;;;16.32;57.51;101885.00;5111032;28;20024;-56
2022/09/01 03:40:12;;;;;;;7.43;2.90;;;;;;;16.30;57.43;101888.75;5112016;28;20020;-56
2022/09/01 03:42:39;;;;;;;3.83;2.90;;;;;;;16.40;57.23;101888.97;5111121;28;20024;-56
2022/09/01 03:45:11;;;;;;;5.63;2.63;;;;;;;16.36;57.37;101882.97;5110520;28;20024;-56
2022/09/01 03:47:39;;;;;;;3.35;2.90;;;;;;;16.37;57.08;101879.28;5112238;28;20104;-56
2022/09/01 03:50:12;;;;;;;3.70;2.70;;;;;;;16.31;57.34;101877.91;5112177;28;20024;-56
2022/09/01 03:52:39;;;;;;;3.33;2.78;;;;;;;16.35;57.51;101881.22;5112381;28;20034;-56
2022/09/01 03:55:05;;;;;;;5.70;2.90;;;;;;;16.24;57.82;101879.31;5111956;28;20094;-56
2022/09/01 03:57:30;;;;;;;7.15;2.85;;;;;;;16.29;57.60;101879.81;5112189;28;20114;-56
2022/09/01 03:59:56;;;;;;;6.18;2.90;;;;;;;16.35;57.51;101886.59;5115378;28;20043;-56
2022/09/01 04:02:21;;;;;;;4.22;2.45;;;;;;;16.17;58.04;101878.00;5116207;28;20027;-56
2022/09/01 04:04:47;;;;;;;4.43;2.75;;;;;;;16.18;58.06;101873.50;5116377;28;20031;-56
2022/09/01 04:07:12;;;;;;;3.03;2.20;;;;;;;16.20;57.78;101879.63;5116117;28;20051;-56
2022/09/01 04:09:38;;;;;;;5.00;2.60;;;;;;;16.13;58.06;101879.19;5115911;27;20489;-56
2022/09/01 04:12:07;;;;;;;5.18;2.58;;;;;;;16.15;58.12;101879.97;5116304;28;20028;-56
2022/09/01 04:14:36;;;;;;;4.32;2.63;;;;;;;16.20;57.98;101875.09;5115656;28;20020;-56
2022/09/01 04:19:48;;;;;;;3.25;2.50;;;;;;;16.07;58.36;101876.94;5116188;28;20069;-56
2022/09/01 04:22:16;;;;;;;3.60;2.88;;;;;;;16.06;58.37;101885.94;5114530;28;20050;-56
2022/09/01 04:24:44;;;;;;;5.97;2.80;;;;;;;16.11;58.63;101875.75;5115618;28;20082;-56
2022/09/01 04:27:10;;;;;;;6.07;2.60;;;;;;;16.12;58.44;101878.34;5115794;28;20023;-55
2022/09/01 04:29:36;;;;;;;4.75;2.60;;;;;;;16.10;58.45;101880.28;5115264;28;20023;-56
2022/09/01 04:32:06;;;;;;;5.10;2.67;;;;;;;16.15;58.20;101890.69;5115865;28;20035;-56
2022/09/01 04:34:37;;;;;;;7.55;2.90;;;;;;;16.16;58.23;101888.88;5115473;27;20111;-56
2022/09/01 04:37:35;;;;;;;5.00;2.88;;;;;;;16.23;57.91;101888.31;5114570;28;20492;-56
2022/09/01 04:40:02;;;;;;;5.22;2.70;;;;;;;16.28;57.61;101883.50;5113999;28;20067;-55
2022/09/01 04:42:31;;;;;;;10.57;3.10;;;;;;;16.31;57.54;101885.94;5116020;28;20023;-56
2022/09/01 04:44:59;;;;;;;6.20;2.78;;;;;;;16.29;57.44;101885.19;5115596;28;20053;-56
2022/09/01 04:47:29;;;;;;;4.95;2.72;;;;;;;16.23;57.43;101888.31;5114633;28;20019;-56
2022/09/01 04:49:59;;;;;;;2.80;2.60;;;;;;;16.24;57.54;101887.38;5114426;28;20084;-56
2022/09/01 04:52:25;;;;;;;4.68;2.70;;;;;;;16.21;57.46;101884.03;5114022;28;20493;-56
2022/09/01 04:54:51;;;;;;;8.60;2.90;;;;;;;16.13;57.47;101880.06;5115097;27;20062;-55
2022/09/01 04:57:17;;;;;;;4.68;2.45;;;;;;;15.98;57.94;101888.31;5115424;28;20448;-55
2022/09/01 04:59:42;;;;;;;4.93;2.58;;;;;;;15.98;57.44;101880.28;5114906;28;20055;-56
2022/09/01 05:02:08;;;;;;;4.85;2.75;;;;;;;15.83;58.08;101883.06;5115424;28;20474;-56
2022/09/01 05:04:34;;;;;;;7.28;2.53;;;;;;;15.99;57.63;101888.19;5115250;27;20381;-56
2022/09/01 05:07:02;;;;;;;5.80;2.50;;;;;;;15.96;57.63;101885.72;5113659;28;20034;-56
2022/09/01 05:09:31;;;;;;;3.00;2.70;;;;;;;15.92;57.63;101889.59;5115121;27;20114;-56
2022/09/01 05:12:00;;;;;;;3.03;2.60;;;;;;;15.88;58.09;101886.28;5115431;28;20030;-56
2022/09/01 05:14:26;;;;;;;3.88;2.40;;;;;;;15.96;57.70;101883.06;5114792;28;20053;-56
2022/09/01 05:16:57;;;;;;;4.45;2.53;;;;;;;16.01;57.48;101886.28;5113884;28;20474;-56
2022/09/01 05:19:27;;;;;;;6.05;2.78;;;;;;;15.88;57.38;101890.75;5114731;28;20031;-56
2022/09/01 05:21:56;;;;;;;4.40;2.92;;;;;;;15.88;57.53;101888.97;5114827;28;20410;-56
2022/09/01 05:24:24;;;;;;;5.55;2.63;;;;;;;15.80;57.59;101880.56;5114808;28;20024;-56
2022/09/01 05:26:49;;;;;;;6.88;2.90;;;;;;;15.86;57.43;101898.09;5115063;28;20040;-56
2022/09/01 05:29:17;;;;;;;5.70;2.65;;;;;;;15.92;57.54;101894.97;5114338;28;20024;-56
2022/09/01 05:31:45;;;;;;;2.85;2.55;;;;;;;15.95;57.25;101892.06;5113378;28;20032;-56
2022/09/01 05:34:12;;;;;;;4.85;2.60;;;;;;;15.84;57.72;101895.50;5114661;28;20020;-56
2022/09/01 05:36:44;;;;;;;2.90;2.45;;;;;;;15.93;57.73;101894.00;5113286;28;20020;-56
2022/09/01 05:39:11;;;;;;;5.28;2.88;;;;;;;15.91;57.49;101887.88;5114459;28;20510;-56
2022/09/01 05:41:38;;;;;;;6.22;2.67;;;;;;;16.02;57.31;101895.19;5114706;28;20462;-56
2022/09/01 05:44:05;;;;;;;5.75;2.60;;;;;;;16.07;57.58;101895.75;5112845;28;20027;-55
2022/09/01 05:46:32;;;;;;;7.05;3.28;;;;;;;16.03;56.70;101892.41;5114453;28;20059;-56
2022/09/01 05:48:58;;;;;;;6.38;2.78;;;;;;;15.96;57.12;101895.63;5114745;28;20359;-56
2022/09/01 05:51:27;;;;;;;4.40;2.70;;;;;;;16.04;57.14;101899.50;5114024;28;20027;-56
2022/09/01 05:53:57;;;;;;;5.38;2.45;;;;;;;16.01;57.16;101904.22;5113072;28;20442;-56
2022/09/01 05:56:27;;;;;;;7.55;2.90;;;;;;;16.17;56.57;101895.94;5114309;28;20489;-56
2022/09/01 05:58:53;;;;;;;3.08;2.60;;;;;;;16.10;56.63;101899.06;5113510;28;20058;-56
2022/09/01 06:01:25;;;;;;;11.80;3.60;;;;;;;16.20;56.58;101903.78;5114058;28;20280;-56
2022/09/01 06:03:53;;;;;;;4.60;2.58;;;;;;;16.10;57.17;101900.88;5114014;28;20079;-56
2022/09/01 06:06:24;;;;;;;3.27;2.80;;;;;;;16.15;57.18;101908.59;5113894;28;20367;-56
2022/09/01 06:08:57;;;;;;;4.32;2.60;;;;;;;16.16;56.87;101899.59;5113979;28;20372;-55
2022/09/01 06:11:25;;;;;;;4.45;3.15;;;;;;;16.10;56.75;101904.44;5112420;28;20019;-56
2022/09/01 06:13:54;;;;;;;7.57;3.00;;;;;;;16.09;56.80;101912.59;5112221;28;20036;-56
2022/09/01 06:16:20;;;;;;;;;;;;;;;16.23;56.24;101909.78;5114324;28;20031;-56
2022/09/01 06:18:46;;;;;;;3.30;2.72;;;;;;;16.15;56.68;101911.28;5113803;28;19914;-56
2022/09/01 06:21:15;;;;;;;5.65;3.00;;;;;;;16.13;57.19;101908.72;5112964;28;20019;-55
2022/09/01 06:23:42;;;;;;;5.95;3.08;;;;;;;16.22;56.67;101907.22;5112365;28;20443;-56
2022/09/01 06:26:18;;;;;;;3.33;2.78;;;;;;;16.28;56.21;101906.78;5113670;28;20102;-56
2022/09/01 06:28:44;;;;;;;5.07;2.67;;;;;;;16.37;56.25;101910.66;5113047;28;20027;-56
2022/09/01 06:31:11;;;;;;;8.32;3.15;;;;;;;16.48;56.03;101908.06;5112301;28;20386;-56
2022/09/01 06:33:37;;;;;;;4.38;3.03;;;;;;;16.52;56.74;101910.41;5113260;28;20378;-56
2022/09/01 06:36:04;;;;;;;6.57;2.90;;;;;;;16.61;55.59;101902.69;5112261;28;20030;-56
2022/09/01 06:38:30;;;;;;;6.20;3.13;;;;;;;16.69;55.15;101900.31;5113180;28;20054;-56
2022/09/01 06:41:03;;;;;;;7.32;3.35;;;;;;;16.74;55.34;101906.22;5112323;28;20459;-56
2022/09/01 06:43:30;;;;;;;4.88;2.92;;;;;;;16.88;54.90;101913.28;5111763;28;20049;-56
2022/09/01 06:45:59;;;;;;;9.25;3.53;;;;;;;16.86;55.23;101909.88;5113484;28;20019;-55
2022/09/01 06:48:25;;;;;;;8.23;3.50;;;;;;;16.98;55.06;101909.81;5111869;28;20483;-56
2022/09/01 06:50:50;;;;;;;5.13;3.63;;;;;;;17.04;54.55;101903.16;5111911;28;20114;-56
2022/09/01 06:53:17;;;;;;;11.23;4.05;;;;;;;17.10;54.85;101909.91;5111789;28;20474;-56
2022/09/01 06:55:47;;;;;;;5.63;3.35;;;;;;;17.33;54.29;101905.53;5113232;28;20102;-56
2022/09/01 06:58:14;;;;;;;4.13;2.97;;;;;;;17.46;54.12;101900.91;5111475;28;20126;-56
2022/09/01 07:00:41;;;;;;;5.70;3.05;;;;;;;17.61;53.69;101904.28;5111589;28;20417;-56
2022/09/01 07:03:12;;;;;;;4.55;3.30;;;;;;;17.74;53.49;101912.28;5112836;28;20019;-56
2022/09/01 07:05:45;;;;;;;9.50;2.88;;;;;;;17.81;53.07;101911.72;5112956;28;20048;-55
2022/09/01 07:08:16;;;;;;;6.03;2.85;;;;;;;17.92;52.52;101925.22;5113036;28;20138;-56
2022/09/01 07:10:46;;;;;;;4.07;3.20;;;;;;;17.95;52.91;101925.97;5112805;28;20024;-56
2022/09/01 07:13:17;;;;;;;5.30;3.25;;;;;;;17.98;53.05;101923.03;5112444;28;20040;-56
2022/09/01 07:15:43;;;;;;;5.68;3.05;;;;;;;18.07;52.80;101927.69;5112856;28;20034;-56
2022/09/01 07:18:11;;;;;;;6.25;3.65;;;;;;;18.26;52.58;101929.81;5112354;28;20486;-56
2022/09/01 07:20:40;;;;;;;5.40;3.40;;;;;;;18.35;52.54;101932.66;5113025;28;20023;-56
2022/09/01 07:23:06;;;;;;;6.00;2.90;;;;;;;18.42;52.12;101934.88;5112601;28;20024;-56
2022/09/01 07:25:37;;;;;;;12.80;3.30;;;;;;;18.47;51.72;101929.94;5112662;28;20032;-56
2022/09/01 07:28:03;;;;;;;4.95;2.90;;;;;;;18.56;51.64;101935.50;5110953;28;20023;-56
2022/09/01 07:30:30;;;;;;;3.72;2.67;;;;;;;18.66;51.72;101932.06;5112521;28;20031;-56
2022/09/01 07:32:56;;;;;;;4.80;3.00;;;;;;;18.70;51.72;101920.03;5112463;28;20138;-56
2022/09/01 07:35:22;;;;;;;7.40;2.95;;;;;;;18.80;51.80;101921.91;5112616;28;20031;-55
2022/09/01 07:37:49;;;;;;;7.07;3.03;;;;;;;18.86;51.76;101931.34;5111333;28;20110;-56
2022/09/01 07:40:18;;;;;;;6.55;2.85;;;;;;;18.86;51.78;101925.09;5112554;28;20019;-56
2022/09/01 07:42:53;;;;;;;6.10;2.97;;;;;;;18.91;51.36;101931.81;5111040;28;20413;-56
2022/09/01 07:45:18;;;;;;;7.53;3.38;;;;;;;18.99;51.04;101926.66;5111011;28;20031;-56
2022/09/01 07:47:44;;;;;;;9.20;3.72;;;;;;;19.00;50.99;101927.50;5112286;28;20023;-56
2022/09/01 07:50:14;;;;;;;10.25;3.38;;;;;;;19.04;50.67;101928.97;5112307;28;20466;-56
2022/09/01 07:52:48;;;;;;;10.68;3.33;;;;;;;19.18;50.33;101930.56;5112474;28;20027;-56
2022/09/01 07:55:15;;;;;;;10.48;3.85;;;;;;;19.33;50.25;101931.13;5112475;28;20416;-56
2022/09/01 07:57:44;;;;;;;6.78;3.08;;;;;;;19.43;50.21;101927.53;5112245;28;20032;-56
2022/09/01 08:00:12;;;;;;;5.57;3.08;;;;;;;19.51;50.00;101927.75;5111770;28;20047;-56
2022/09/01 08:02:42;;;;;;;7.60;3.22;;;;;;;19.56;50.17;101927.38;5145085;27;20406;-56
2022/09/01 08:05:10;;;;;;;7.40;3.63;;;;;;;19.67;49.74;101926.47;5110937;28;20039;-56
2022/09/01 08:07:38;;;;;;;8.95;3.38;;;;;;;19.77;49.96;101930.13;5112243;28;20034;-56
2022/09/01 08:10:06;;;;;;;10.10;3.40;;;;;;;19.89;49.61;101929.09;5110745;28;20106;-56
2022/09/01 08:12:34;;;;;;;9.02;3.58;;;;;;;19.99;49.68;101936.38;5110874;28;20023;-56
2022/09/01 08:15:05;;;;;;;7.63;3.17;;;;;;;20.13;49.47;101933.38;5111896;28;20393;-56
2022/09/01 08:17:30;;;;;;;8.98;3.30;;;;;;;20.29;48.88;101924.78;5112002;28;20039;-56
2022/09/01 08:19:55;;;;;;;9.95;3.30;;;;;;;20.52;49.11;101930.88;5111072;28;20024;-56
2022/09/01 08:22:22;;;;;;;8.50;3.42;;;;;;;20.65;48.08;101931.53;5112161;28;20034;-56
2022/09/01 08:24:48;;;;;;;6.57;3.38;;;;;;;20.76;47.96;101930.56;5112021;28;20487;-56
2022/09/01 08:27:14;;;;;;;11.98;3.45;;;;;;;20.96;48.28;101921.53;5110833;28;20098;-56
2022/09/01 08:29:40;;;;;;;7.50;3.30;;;;;;;21.14;47.41;101934.38;5110023;28;20169;-56
2022/09/01 08:32:05;;;;;;;11.65;3.85;;;;;;;21.26;47.01;101934.13;5111921;28;20024;-56
2022/09/01 08:34:32;;;;;;;9.30;3.13;;;;;;;21.45;46.69;101930.63;5110560;28;20020;-56
2022/09/01 08:37:00;;;;;;;14.27;3.55;;;;;;;21.59;46.57;101926.66;5112223;28;20493;-56
2022/09/01 08:39:26;;;;;;;11.75;3.65;;;;;;;21.71;46.41;101916.53;5110556;28;20020;-56
2022/09/01 08:42:03;;;;;;;11.00;2.70;;;;;;;21.93;46.33;101928.91;5110675;28;20055;-56
2022/09/01 08:44:53;;;;;;;7.47;3.25;;;;;;;22.13;45.97;101936.00;5110947;28;20107;-56
2022/09/01 08:47:19;;;;;;;4.78;3.03;;;;;;;22.38;44.85;101930.97;5115773;28;20033;-56
2022/09/01 08:49:46;;;;;;;10.25;3.47;;;;;;;22.41;44.73;101931.56;5115299;27;20023;-56
2022/09/01 08:52:43;;;;;;;4.93;2.83;;;;;;;22.61;44.82;101931.47;5114288;28;20114;-56
2022/09/01 08:55:19;;;;;;;6.63;2.75;;;;;;;22.71;44.50;101940.44;5115547;28;20051;-56
2022/09/01 08:57:46;;;;;;;5.90;3.13;;;;;;;22.90;44.23;101920.47;5115515;28;20031;-56
2022/09/01 09:00:15;;;;;;;13.05;3.05;;;;;;;22.95;43.88;101928.19;5113210;28;20048;-56
2022/09/01 09:02:48;;;;;;;5.47;2.88;;;;;;;23.13;43.21;101910.09;5115187;28;20024;-56
2022/09/01 09:05:33;;;;;;;7.00;2.78;;;;;;;23.35;43.34;101922.34;5114139;28;20032;-57
2022/09/01 09:08:27;;;;;;;7.90;3.03;;;;;;;23.47;43.06;101922.97;5115280;28;20048;-56
2022/09/01 09:11:22;;;;;;;4.68;2.50;;;;;;;23.59;42.11;101924.47;5115183;28;20575;-56
2022/09/01 09:14:05;;;;;;;8.32;3.22;;;;;;;23.63;41.15;101915.00;5114446;27;20034;-56
2022/09/01 09:16:45;;;;;;;8.20;2.58;;;;;;;23.87;42.24;101914.38;5115199;28;20023;-56
2022/09/01 09:19:32;;;;;;;7.60;2.47;;;;;;;24.06;41.84;101912.47;5113820;28;20115;-56
2022/09/01 09:22:01;;;;;;;6.53;2.42;;;;;;;24.07;41.20;101919.63;5113829;28;20068;-56
2022/09/01 09:24:48;;;;;;;7.75;2.63;;;;;;;24.32;40.46;101912.47;5115002;28;20391;-56
2022/09/01 09:27:24;;;;;;;6.25;2.38;;;;;;;24.29;40.66;101910.91;5114843;28;20386;-56
2022/09/01 09:30:03;;;;;;;4.03;2.20;;;;;;;24.54;40.84;101906.50;5114148;28;20088;-56
2022/09/01 09:32:45;;;;;;;7.25;2.58;;;;;;;24.75;39.75;101906.09;5114932;28;20038;-56
2022/09/01 09:35:19;;;;;;;7.93;2.40;;;;;;;24.88;39.42;101908.34;5113347;28;20471;-56
2022/09/01 09:37:44;;;;;;;9.55;2.00;;;;;;;25.04;37.84;101904.81;5114560;28;20432;-56
2022/09/01 09:40:15;;;;;;;3.97;2.17;;;;;;;25.01;38.27;101902.44;5113257;28;20019;-56
2022/09/01 09:43:01;;;;;;;7.90;2.50;;;;;;;25.19;37.69;101900.47;5113207;28;20076;-56
2022/09/01 09:45:32;;;;;;;5.82;2.40;;;;;;;25.27;36.43;101888.75;5114618;28;20020;-56
2022/09/01 09:47:57;;;;;;;5.43;2.60;;;;;;;25.22;36.83;101886.50;5114492;28;20027;-56
2022/09/01 09:50:25;;;;;;;4.97;1.95;;;;;;;25.46;36.65;101882.97;5114331;28;20097;-56
2022/09/01 09:53:10;;;;;;;8.68;2.28;;;;;;;25.57;35.60;101889.97;5112960;28;20019;-57
2022/09/01 09:55:49;;;;;;;4.45;1.95;;;;;;;25.56;35.33;101883.66;5112218;28;20072;-56
2022/09/01 09:58:14;;;;;;;6.68;1.73;;;;;;;25.67;35.42;101867.97;5113601;28;20036;-56
2022/09/01 10:00:59;;;;;;;6.93;2.20;;;;;;;25.81;35.66;101878.19;5112808;28;20050;-56
2022/09/01 10:03:40;;;;;;;6.15;2.00;;;;;;;25.88;35.17;101876.50;5112534;28;20179;-56
2022/09/01 10:06:09;;;;;;;3.20;1.75;;;;;;;26.26;33.97;101871.31;5112580;28;20030;-56
2022/09/01 10:08:43;;;;;;;6.63;1.98;;;;;;;26.20;33.29;101877.47;5112635;28;20420;-56
2022/09/01 10:11:12;;;;;;;6.95;1.58;;;;;;;26.34;31.60;101874.03;5146734;27;20028;-56
2022/09/01 10:13:37;;;;;;;;;;;;;;;26.58;30.78;101878.56;5113684;28;20032;-56
2022/09/01 10:16:22;;;;;;;5.35;1.63;;;;;;;26.45;32.29;101872.81;5147207;27;19914;-56
2022/09/01 10:18:50;;;;;;;4.85;1.45;;;;;;;26.70;31.58;101863.50;5112540;28;20140;-56
2022/09/01 10:21:43;;;;;;;3.35;1.50;;;;;;;26.57;32.04;101857.78;5113886;28;20068;-56
2022/09/01 10:24:21;;;;;;;3.78;1.42;;;;;;;26.42;31.03;101864.97;5111307;28;20039;-56
2022/09/01 10:26:51;;;;;;;4.30;1.27;;;;;;;26.70;30.61;101862.66;5113541;28;20019;-56
2022/09/01 10:30:22;;;;;;;6.53;1.70;;;;;;;26.87;29.63;101860.69;5113266;28;20032;-56
2022/09/01 10:32:51;;;;;;;7.53;1.23;;;;;;;27.09;28.85;101870.81;5070724;28;20055;-56
2022/09/01 10:35:22;;;;;;;3.65;1.42;;;;;;;27.13;29.08;101872.13;5101034;28;20069;-56
2022/09/01 10:37:49;;;;;;;3.53;1.20;;;;;;;27.30;29.28;101864.72;5113596;28;20047;-56
2022/09/01 10:40:27;;;;;;;6.05;1.50;;;;;;;27.59;28.65;101860.34;5113159;28;20073;-56
2022/09/01 10:42:57;;;;;;;3.33;1.20;;;;;;;27.82;27.63;101868.56;5111672;28;20031;-56
2022/09/01 10:45:34;;;;;;;3.00;1.52;;;;;;;27.51;27.89;101863.19;5112162;28;20466;-56
2022/09/01 10:48:18;;;;;;;3.88;1.20;;;;;;;27.74;29.32;101866.72;5113243;28;20106;-56
2022/09/01 10:50:45;;;;;;;1.83;1.15;;;;;;;27.93;27.78;101867.25;5112878;28;20034;-57
2022/09/01 10:53:34;;;;;;;5.22;1.30;;;;;;;28.19;27.80;101861.34;5113104;28;20096;-56
2022/09/01 10:56:23;;;;;;;3.72;1.33;;;;;;;28.25;28.61;101857.84;5113116;28;20031;-57
2022/09/01 10:58:59;;;;;;;2.92;1.10;;;;;;;27.99;27.25;101861.03;5101137;28;20487;-56
2022/09/01 11:02:12;;;;;;;2.33;1.20;;;;;;;28.43;28.25;101858.34;5113202;28;20125;-56
2022/09/01 11:04:38;;;;;;;4.72;1.35;;;;;;;28.41;27.27;101862.25;5085100;28;20070;-56
2022/09/01 11:07:25;;;;;;;4.75;1.50;;;;;;;28.60;27.43;101860.88;5112797;28;20432;-56
2022/09/01 11:10:08;;;;;;;3.70;1.42;;;;;;;28.68;27.16;101858.03;5112667;28;20020;-56
2022/09/01 11:12:37;;;;;;;3.28;1.25;;;;;;;28.96;27.28;101852.66;5112743;28;20495;-56
2022/09/01 11:15:04;;;;;;;4.18;1.40;;;;;;;28.94;25.66;101852.00;5111391;28;20034;-57
2022/09/01 11:17:35;;;;;;;3.70;1.27;;;;;;;29.07;25.45;101848.59;5111539;28;20032;-57
2022/09/01 11:20:09;;;;;;;3.45;1.40;;;;;;;28.88;25.83;101850.03;5112738;28;20273;-57
2022/09/01 11:22:40;;;;;;;4.78;1.10;;;;;;;29.13;25.07;101856.03;5111440;28;20491;-56
2022/09/01 11:25:34;;;;;;;4.93;1.58;;;;;;;29.71;25.23;101851.34;5111044;28;20020;-57
2022/09/01 11:28:08;;;;;;;4.55;1.23;;;;;;;29.84;24.80;101848.69;5110807;28;20044;-57
2022/09/01 11:30:50;;;;;;;6.22;1.52;;;;;;;29.64;24.14;101847.69;5111346;28;20092;-57
2022/09/01 11:33:16;;;;;;;9.98;1.50;;;;;;;30.05;24.37;101842.28;5112481;28;20034;-57
2022/09/01 11:35:44;;;;;;;3.72;1.30;;;;;;;30.56;23.55;101838.34;5112920;28;20454;-57
2022/09/01 11:38:14;;;;;;;5.28;1.20;;;;;;;30.87;23.38;101817.78;5112262;28;20034;-57
2022/09/01 11:40:41;;;;;;;4.50;1.20;;;;;;;31.63;22.69;101826.53;5112426;28;20023;-57
2022/09/01 11:43:14;;;;;;;4.20;1.25;;;;;;;32.11;21.97;101830.94;5112111;28;20381;-57
2022/09/01 11:46:13;;;;;;;8.20;1.50;;;;;;;32.65;22.41;101829.72;5112317;28;20135;-57